Time;durP1;ratioP1;P1;durP2;ratioP2;P2;SDS_P1;SDS_P2;PMS_P1;PMS_P2;Temp;Humidity;BMP_temperature;BMP_pressure;BME280_temperature;BME280_humidity;BME280_pressure;Samples;Min_cycle;Max_cycle;Signal;HPM_P1;HPM_P2
2021/01/14 05:01:28;;;;;;;1.40;1.27;;;6.80;51.60;;;;;;5643248;23;20261;-91
2021/01/14 05:04:04;;;;;;;1.30;1.05;;;6.90;50.80;;;;;;4937990;29;20631;-91
2021/01/14 05:06:35;;;;;;;2.67;0.82;;;6.90;50.70;;;;;;4922760;29;20178;-91
2021/01/14 05:09:06;;;;;;;1.15;1.00;;;6.60;50.30;;;;;;4923065;29;20206;-94
2021/01/14 05:11:57;;;;;;;1.15;1.05;;;7.20;50.80;;;;;;4925481;29;20181;-93
2021/01/14 05:14:23;;;;;;;0.90;0.80;;;6.90;51.40;;;;;;4924964;29;20158;-87
2021/01/14 05:16:50;;;;;;;1.52;1.10;;;6.80;51.00;;;;;;4943427;29;20162;-91
2021/01/14 06:44:14;;;;;;;2.60;2.40;;;6.00;54.30;;;;;;4880942;29;20223;-89
2021/01/14 06:46:41;;;;;;;1.88;1.77;;;6.20;53.90;;;;;;4866464;29;20165;-88
2021/01/14 06:49:14;;;;;;;4.05;2.40;;;5.90;52.20;;;;;;4854115;29;20208;-88
2021/01/14 06:51:40;;;;;;;2.33;2.13;;;6.50;52.70;;;;;;4859335;29;20286;-89
2021/01/14 06:54:11;;;;;;;2.67;2.47;;;6.80;52.70;;;;;;4852902;29;20380;-89
2021/01/14 06:57:17;;;;;;;3.65;3.35;;;6.20;51.80;;;;;;4869597;29;20173;-91
2021/01/14 06:59:53;;;;;;;3.50;3.20;;;6.60;52.20;;;;;;4876577;29;20188;-90
2021/01/14 07:02:52;;;;;;;3.05;2.20;;;6.40;52.10;;;;;;4873651;29;20169;-89
2021/01/14 07:05:45;;;;;;;3.10;2.80;;;6.90;52.00;;;;;;4857369;29;20217;-89
2021/01/14 07:08:59;;;;;;;2.75;2.60;;;7.10;51.50;;;;;;4862438;29;20241;-89
2021/01/14 07:11:34;;;;;;;2.67;2.47;;;7.00;52.20;;;;;;4867787;29;20225;-89
2021/01/14 07:14:14;;;;;;;4.20;3.90;;;6.40;51.20;;;;;;4859839;29;20191;-89
2021/01/14 07:16:43;;;;;;;5.32;4.90;;;6.80;51.60;;;;;;4850101;29;20169;-86
2021/01/14 07:19:15;;;;;;;4.10;3.80;;;6.40;52.00;;;;;;4847507;29;20596;-84
2021/01/14 07:21:45;;;;;;;3.38;3.08;;;5.80;52.10;;;;;;4863863;29;20592;-85
2021/01/14 07:24:33;;;;;;;3.17;2.97;;;6.20;52.60;;;;;;4863734;29;20228;-82
2021/01/14 07:27:00;;;;;;;5.43;4.47;;;6.10;52.70;;;;;;4880722;29;20191;-85
2021/01/14 07:29:43;;;;;;;3.90;3.60;;;6.20;52.10;;;;;;4846985;29;20299;-84
2021/01/14 07:32:09;;;;;;;2.25;1.75;;;5.80;50.90;;;;;;4845506;29;20263;-83
2021/01/14 07:34:50;;;;;;;2.10;1.20;;;5.30;48.80;;;;;;4848087;29;20711;-83
2021/01/14 07:37:20;;;;;;;2.40;1.58;;;5.40;48.20;;;;;;4846928;29;20651;-84
2021/01/14 07:39:50;;;;;;;3.72;2.58;;;5.20;49.30;;;;;;4850374;29;20229;-84
2021/01/14 07:42:24;;;;;;;3.70;2.40;;;5.10;51.20;;;;;;4849747;29;20362;-87
2021/01/14 07:44:58;;;;;;;4.50;3.30;;;4.70;51.40;;;;;;4855770;29;20256;-89
2021/01/14 07:47:23;;;;;;;1.60;1.50;;;5.20;52.20;;;;;;4871550;29;20164;-87
2021/01/14 07:49:49;;;;;;;3.70;2.27;;;4.90;53.30;;;;;;4881250;29;20200;-87
2021/01/14 07:52:30;;;;;;;2.22;2.00;;;4.80;53.30;;;;;;4863923;29;20204;-85
2021/01/14 07:55:05;;;;;;;1.73;1.63;;;5.00;53.50;;;;;;4863342;29;20172;-83
2021/01/14 07:57:44;;;;;;;3.10;2.30;;;4.40;53.10;;;;;;4867654;29;20226;-83
2021/01/14 08:00:22;;;;;;;2.08;1.88;;;4.80;53.40;;;;;;4878718;29;20192;-83
2021/01/14 08:03:07;;;;;;;3.15;1.90;;;4.90;53.00;;;;;;4863868;29;20168;-85
2021/01/14 08:05:43;;;;;;;4.95;3.08;;;4.50;53.20;;;;;;4867394;29;20188;-88
2021/01/14 08:08:39;;;;;;;6.60;4.57;;;5.10;52.90;;;;;;4867558;29;20168;-89
2021/01/14 08:11:20;;;;;;;5.85;5.25;;;5.40;53.00;;;;;;4866850;29;20176;-87
2021/01/14 08:14:17;;;;;;;5.85;5.35;;;5.60;52.30;;;;;;4849834;29;20180;-87
2021/01/14 08:16:55;;;;;;;4.82;3.97;;;5.50;51.90;;;;;;4845958;29;20602;-83
2021/01/14 08:19:33;;;;;;;4.85;3.25;;;5.70;51.70;;;;;;4844973;29;20191;-85
2021/01/14 08:21:58;;;;;;;4.70;3.88;;;5.50;51.80;;;;;;4845920;29;20180;-85
2021/01/14 08:24:42;;;;;;;10.67;7.83;;;5.60;51.00;;;;;;4845139;29;20267;-85
2021/01/14 08:27:28;;;;;;;8.35;6.03;;;6.20;50.90;;;;;;4845106;29;20229;-85
2021/01/14 08:30:04;;;;;;;6.35;4.65;;;6.00;50.40;;;;;;4846270;29;20204;-85
2021/01/14 08:32:36;;;;;;;7.20;4.95;;;6.50;50.70;;;;;;4847087;29;20398;-84
2021/01/14 08:35:03;;;;;;;2.70;2.15;;;6.00;49.30;;;;;;4862889;29;20620;-84
2021/01/14 08:37:43;;;;;;;1.65;1.55;;;5.90;48.70;;;;;;4860484;29;20193;-84
2021/01/14 08:40:11;;;;;;;2.47;2.20;;;5.60;48.50;;;;;;4863357;29;20172;-84
2021/01/14 08:42:40;;;;;;;2.17;1.98;;;5.80;48.70;;;;;;4862671;29;20384;-84
2021/01/14 08:45:09;;;;;;;2.55;2.08;;;5.60;47.30;;;;;;4864117;29;20184;-84
2021/01/14 08:47:55;;;;;;;2.53;2.33;;;5.50;47.70;;;;;;4859192;29;20177;-85
2021/01/14 08:50:37;;;;;;;2.15;2.00;;;5.50;47.90;;;;;;4847625;29;20660;-85
2021/01/14 08:53:07;;;;;;;3.17;2.22;;;5.90;49.20;;;;;;4848340;29;20173;-83
2021/01/14 08:55:37;;;;;;;4.15;2.40;;;5.50;49.50;;;;;;4848753;29;20180;-82
2021/01/14 08:58:07;;;;;;;3.97;2.92;;;5.30;49.80;;;;;;4848287;29;20173;-85
2021/01/14 09:00:37;;;;;;;3.45;3.15;;;4.80;50.10;;;;;;4848018;29;20228;-83
2021/01/14 09:03:04;;;;;;;3.17;2.65;;;4.90;50.00;;;;;;4856198;29;20259;-84
2021/01/14 09:05:31;;;;;;;7.32;6.47;;;5.20;50.50;;;;;;4856996;29;20243;-83
2021/01/14 09:08:09;;;;;;;4.55;4.15;;;5.20;49.90;;;;;;4851999;29;20195;-83
2021/01/14 09:10:52;;;;;;;6.50;5.40;;;4.60;48.50;;;;;;4859440;29;20223;-84
2021/01/14 09:13:26;;;;;;;3.92;3.63;;;5.10;50.30;;;;;;4865082;29;20255;-83
2021/01/14 09:15:54;;;;;;;6.45;5.45;;;5.10;49.50;;;;;;4865668;29;20191;-83
2021/01/14 09:18:30;;;;;;;5.70;4.95;;;5.00;50.60;;;;;;4866553;29;20172;-84
2021/01/14 09:20:56;;;;;;;8.15;4.35;;;5.00;51.50;;;;;;4866090;29;20168;-83
2021/01/14 09:23:34;;;;;;;11.73;8.82;;;4.70;51.30;;;;;;4866498;29;20168;-82
2021/01/14 09:26:22;;;;;;;10.48;7.15;;;4.90;51.80;;;;;;4866453;29;20205;-83
2021/01/14 09:28:51;;;;;;;5.90;5.05;;;5.30;50.80;;;;;;4866250;29;20254;-85
2021/01/14 09:31:17;;;;;;;4.15;3.72;;;5.10;50.40;;;;;;4866033;29;20172;-82
2021/01/14 09:33:45;;;;;;;5.07;3.65;;;5.60;49.30;;;;;;4866538;29;20284;-82
2021/01/14 09:36:14;;;;;;;5.55;3.85;;;5.40;49.10;;;;;;4866659;29;20204;-82
2021/01/14 09:38:43;;;;;;;5.35;4.05;;;5.70;50.80;;;;;;4866051;29;20180;-81
2021/01/14 09:41:10;;;;;;;16.30;11.55;;;5.50;51.90;;;;;;4882710;29;20160;-82
2021/01/14 09:43:41;;;;;;;6.95;6.05;;;5.30;50.00;;;;;;4865752;29;20231;-82
2021/01/14 09:46:14;;;;;;;3.53;3.10;;;5.30;50.40;;;;;;4865708;29;20187;-82
2021/01/14 09:48:42;;;;;;;2.60;2.30;;;4.90;48.40;;;;;;4865413;29;20651;-82
2021/01/14 09:51:11;;;;;;;2.50;1.85;;;5.60;47.20;;;;;;4875266;29;20187;-84
2021/01/14 09:53:46;;;;;;;3.38;1.88;;;4.80;47.20;;;;;;4865395;29;20666;-84
2021/01/14 09:56:29;;;;;;;1.52;1.30;;;5.50;46.70;;;;;;4849759;29;20197;-84
2021/01/14 09:58:57;;;;;;;1.42;1.30;;;5.50;45.80;;;;;;4856931;29;20521;-84
2021/01/14 10:01:37;;;;;;;3.25;1.65;;;5.60;44.90;;;;;;4872026;29;20207;-85
2021/01/14 10:04:10;;;;;;;2.17;1.88;;;5.70;45.80;;;;;;4850414;29;20589;-85
2021/01/14 10:06:44;;;;;;;2.60;2.00;;;5.40;44.90;;;;;;4847428;29;20180;-84
2021/01/14 10:09:11;;;;;;;2.42;2.00;;;5.80;45.20;;;;;;4855652;29;20196;-84
2021/01/14 10:11:37;;;;;;;3.90;1.55;;;5.80;44.60;;;;;;4882097;29;20159;-85
2021/01/14 10:14:05;;;;;;;2.10;1.60;;;6.00;45.50;;;;;;4853994;29;20183;-83
2021/01/14 10:16:31;;;;;;;2.33;1.50;;;6.10;45.10;;;;;;4864849;29;20177;-85
2021/01/14 10:19:09;;;;;;;2.67;1.80;;;6.20;44.20;;;;;;4864824;29;20171;-82
2021/01/14 10:21:37;;;;;;;1.80;1.70;;;6.60;44.40;;;;;;4864861;29;20479;-85
2021/01/14 10:24:05;;;;;;;1.50;1.40;;;6.60;44.20;;;;;;4857142;29;20272;-83
2021/01/14 10:26:31;;;;;;;2.03;1.58;;;6.60;44.30;;;;;;4864914;29;20560;-82
2021/01/14 10:29:05;;;;;;;1.33;1.20;;;6.90;44.40;;;;;;4865219;29;20287;-83
2021/01/14 10:31:35;;;;;;;1.50;1.30;;;6.40;43.80;;;;;;4854506;29;20636;-85
2021/01/14 10:34:08;;;;;;;1.30;1.20;;;6.70;44.80;;;;;;4858931;29;20199;-84
2021/01/14 10:36:45;;;;;;;2.38;1.20;;;6.60;44.30;;;;;;4852068;29;20712;-82
2021/01/14 10:39:38;;;;;;;1.52;1.35;;;6.30;45.30;;;;;;4858671;29;20536;-84
2021/01/14 10:42:34;;;;;;;1.95;1.35;;;6.70;45.50;;;;;;4861336;29;20624;-83
2021/01/14 10:45:09;;;;;;;3.50;2.95;;;6.30;45.50;;;;;;4846492;29;20209;-83
2021/01/14 10:47:45;;;;;;;2.42;1.70;;;6.70;46.20;;;;;;4846268;29;20719;-83
2021/01/14 10:50:29;;;;;;;2.70;2.03;;;6.30;45.80;;;;;;4846049;29;20292;-83
2021/01/14 10:53:00;;;;;;;2.60;2.38;;;6.30;45.80;;;;;;4846177;29;20249;-84
2021/01/14 10:55:45;;;;;;;8.23;4.15;;;6.00;45.90;;;;;;4846047;29;20173;-84
2021/01/14 10:58:53;;;;;;;4.22;3.25;;;6.20;46.90;;;;;;4845695;29;20169;-83
2021/01/14 11:01:20;;;;;;;4.45;3.53;;;6.30;48.30;;;;;;4862182;29;20251;-84
2021/01/14 11:03:47;;;;;;;4.20;3.30;;;5.70;47.10;;;;;;4845841;29;20180;-85
2021/01/14 11:06:39;;;;;;;5.53;3.40;;;6.50;48.30;;;;;;4863688;29;20188;-85
2021/01/14 11:09:06;;;;;;;4.30;3.08;;;5.80;48.80;;;;;;4864657;29;20208;-85
2021/01/14 11:11:38;;;;;;;4.30;3.90;;;5.40;49.50;;;;;;4864517;29;20207;-85
2021/01/14 11:14:04;;;;;;;6.57;4.10;;;5.20;51.00;;;;;;4849121;29;20173;-85
2021/01/14 11:16:31;;;;;;;7.20;3.97;;;5.10;51.70;;;;;;4864665;29;20195;-82
2021/01/14 11:18:58;;;;;;;4.13;3.10;;;4.80;52.00;;;;;;4865988;29;20511;-88
2021/01/14 11:21:31;;;;;;;4.03;3.20;;;4.90;52.90;;;;;;4866221;29;20173;-89
2021/01/14 11:32:54;;;;;;;2.70;2.50;;;5.50;52.20;;;;;;4911061;29;20206;-89
2021/01/14 11:35:20;;;;;;;2.40;2.20;;;5.40;51.40;;;;;;4918468;29;20186;-88
2021/01/14 11:37:45;;;;;;;2.30;2.10;;;6.10;50.40;;;;;;4904750;29;20526;-90
2021/01/14 11:40:11;;;;;;;4.03;2.43;;;5.80;50.70;;;;;;4891907;29;20222;-90
2021/01/14 11:42:37;;;;;;;3.23;2.13;;;5.80;49.70;;;;;;4892252;29;20791;-90
2021/01/14 11:45:04;;;;;;;2.87;2.47;;;5.80;49.10;;;;;;4890063;29;20455;-91
2021/01/14 11:47:30;;;;;;;4.28;3.20;;;5.80;49.20;;;;;;4907722;29;20523;-90
2021/01/14 11:49:55;;;;;;;3.40;2.83;;;5.80;48.80;;;;;;4917603;29;20202;-90
2021/01/14 11:52:21;;;;;;;2.40;2.20;;;5.30;48.50;;;;;;4912433;29;20179;-90
2021/01/14 11:54:47;;;;;;;3.20;2.90;;;5.90;48.80;;;;;;4920828;29;20171;-90
2021/01/14 11:57:13;;;;;;;3.53;3.03;;;5.70;48.30;;;;;;4921805;29;20637;-91
2021/01/14 11:59:39;;;;;;;3.50;2.67;;;5.70;48.50;;;;;;4921477;29;20174;-91
2021/01/14 12:02:05;;;;;;;3.17;2.27;;;6.10;48.30;;;;;;4916763;29;20950;-86
2021/01/14 12:04:30;;;;;;;3.60;3.30;;;5.30;47.30;;;;;;4886567;29;20239;-91
2021/01/14 12:06:57;;;;;;;4.60;2.80;;;5.80;47.80;;;;;;4901416;29;20417;-89
2021/01/14 12:09:23;;;;;;;2.92;2.60;;;5.80;47.60;;;;;;4901246;29;20263;-89
2021/01/14 12:11:52;;;;;;;2.07;1.93;;;5.50;47.60;;;;;;4900924;29;20195;-90
2021/01/14 12:14:18;;;;;;;2.20;2.00;;;5.90;47.20;;;;;;4902450;29;20171;-92
2021/01/14 12:16:44;;;;;;;3.23;2.30;;;6.00;47.00;;;;;;4920611;29;20183;-91
2021/01/14 12:19:09;;;;;;;3.07;2.77;;;5.50;46.10;;;;;;4920896;29;20175;-90
2021/01/14 12:21:35;;;;;;;2.30;2.03;;;6.20;45.90;;;;;;4920188;29;20226;-90
2021/01/14 12:24:01;;;;;;;3.40;3.07;;;5.70;45.40;;;;;;4920788;29;20249;-89
2021/01/14 12:26:27;;;;;;;6.30;4.50;;;6.30;46.00;;;;;;4923937;29;20262;-89
2021/01/14 12:28:53;;;;;;;5.20;4.53;;;6.10;45.40;;;;;;4924635;29;20187;-89
2021/01/14 12:31:19;;;;;;;2.60;2.30;;;6.20;45.30;;;;;;4914566;29;20230;-89
2021/01/14 12:33:46;;;;;;;2.92;2.47;;;6.50;45.60;;;;;;4888262;29;20420;-90
2021/01/14 12:36:11;;;;;;;3.20;2.13;;;6.00;45.60;;;;;;4888714;29;20203;-89
2021/01/14 12:38:41;;;;;;;4.40;3.43;;;5.80;44.90;;;;;;4889023;29;20649;-90
2021/01/14 12:41:07;;;;;;;3.13;2.30;;;6.30;43.80;;;;;;4888870;29;20172;-88
2021/01/14 12:43:34;;;;;;;3.63;2.10;;;6.70;44.60;;;;;;4888493;29;20172;-90
2021/01/14 12:45:59;;;;;;;3.20;2.40;;;6.40;43.40;;;;;;4889090;29;20171;-89
2021/01/14 12:48:25;;;;;;;2.50;2.23;;;6.60;43.90;;;;;;4887946;29;20239;-88
2021/01/14 12:50:51;;;;;;;2.37;2.17;;;6.20;43.30;;;;;;4888052;29;20180;-89
2021/01/14 12:53:16;;;;;;;4.27;2.60;;;6.70;43.40;;;;;;4887432;29;20179;-87
2021/01/14 12:55:42;;;;;;;2.87;2.63;;;6.70;43.50;;;;;;4887620;29;20247;-87
2021/01/14 12:58:08;;;;;;;2.33;2.13;;;6.90;43.50;;;;;;4887698;29;20569;-88
2021/01/14 13:00:34;;;;;;;3.80;2.20;;;6.90;43.30;;;;;;4886750;29;20708;-88
2021/01/14 13:02:59;;;;;;;2.40;2.13;;;6.40;43.40;;;;;;4899461;29;20179;-88
2021/01/14 13:05:25;;;;;;;3.10;2.60;;;6.70;43.20;;;;;;4882965;29;20177;-85
2021/01/14 13:07:51;;;;;;;3.47;2.47;;;7.10;43.30;;;;;;4867853;29;20184;-86
2021/01/14 13:10:16;;;;;;;2.90;2.33;;;7.50;43.40;;;;;;4868156;29;20352;-87
2021/01/14 13:12:42;;;;;;;3.03;2.60;;;7.00;42.60;;;;;;4883667;29;20169;-86
2021/01/14 13:15:08;;;;;;;2.37;2.17;;;6.80;42.60;;;;;;4884393;29;20186;-87
2021/01/14 13:17:33;;;;;;;2.50;1.90;;;7.10;42.50;;;;;;4883090;29;20179;-86
2021/01/14 13:19:59;;;;;;;2.43;2.23;;;7.00;43.10;;;;;;4890646;29;20180;-86
2021/01/14 13:22:26;;;;;;;2.73;2.53;;;7.20;43.20;;;;;;4877825;29;20232;-87
2021/01/14 13:24:52;;;;;;;2.45;2.25;;;6.30;42.90;;;;;;4901771;29;20182;-86
2021/01/14 13:27:28;;;;;;;2.30;2.20;;;7.00;43.30;;;;;;4887561;29;20214;-88
2021/01/14 13:29:53;;;;;;;2.70;2.50;;;7.10;43.70;;;;;;4887125;29;20198;-88
2021/01/14 13:32:19;;;;;;;3.27;2.30;;;7.10;43.50;;;;;;4932032;29;20219;-86
2021/01/14 13:34:46;;;;;;;3.03;2.30;;;7.00;43.60;;;;;;4936143;29;20185;-88
2021/01/14 13:37:12;;;;;;;4.10;2.65;;;7.00;43.50;;;;;;4941173;29;20235;-88
2021/01/14 13:39:38;;;;;;;3.45;3.15;;;6.40;43.50;;;;;;4944739;29;20175;-87
2021/01/14 13:42:05;;;;;;;4.67;3.90;;;6.70;44.10;;;;;;4925391;29;20178;-86
2021/01/14 13:44:30;;;;;;;3.50;3.20;;;6.30;45.70;;;;;;4944127;29;20189;-87
2021/01/14 13:46:56;;;;;;;8.90;6.33;;;6.30;45.10;;;;;;4943615;29;20178;-87
2021/01/14 13:49:24;;;;;;;11.33;8.07;;;6.50;45.60;;;;;;4939192;29;20194;-88
2021/01/14 13:51:50;;;;;;;4.68;3.78;;;5.60;44.50;;;;;;4944867;29;20221;-88
2021/01/14 13:54:17;;;;;;;4.57;4.10;;;6.00;45.60;;;;;;4958625;29;20617;-90
2021/01/14 13:56:50;;;;;;;5.85;3.05;;;5.80;45.30;;;;;;4940483;29;20406;-88
2021/01/14 13:59:15;;;;;;;3.65;3.22;;;5.30;47.20;;;;;;4924055;29;20194;-88
2021/01/14 14:01:44;;;;;;;14.20;9.93;;;4.50;48.50;;;;;;4915157;29;20186;-89
2021/01/14 14:04:10;;;;;;;5.38;3.90;;;4.90;50.00;;;;;;4920670;29;20179;-88
2021/01/14 14:06:39;;;;;;;2.70;2.50;;;5.00;49.30;;;;;;4938513;29;20224;-89
2021/01/14 14:09:09;;;;;;;3.05;2.75;;;4.40;48.90;;;;;;4921889;29;20233;-87
2021/01/14 14:11:40;;;;;;;2.55;2.33;;;4.50;49.10;;;;;;4936276;29;20182;-87
2021/01/14 14:14:06;;;;;;;4.18;2.50;;;5.10;48.20;;;;;;4921686;29;20524;-87
2021/01/14 14:16:32;;;;;;;3.40;3.10;;;5.30;48.90;;;;;;4937272;29;20214;-87
2021/01/14 14:18:59;;;;;;;6.13;4.07;;;5.20;49.30;;;;;;4937628;29;20226;-87
2021/01/14 14:21:44;;;;;;;4.15;3.75;;;5.20;48.70;;;;;;4922115;29;20540;-87
2021/01/14 14:24:11;;;;;;;4.35;3.95;;;5.20;49.40;;;;;;4922562;29;20178;-87
2021/01/14 14:26:37;;;;;;;6.40;4.47;;;5.20;49.10;;;;;;4926573;29;20191;-88
2021/01/14 14:29:04;;;;;;;4.53;3.90;;;5.20;48.60;;;;;;4920307;29;20195;-87
2021/01/14 14:31:33;;;;;;;3.58;3.28;;;4.90;48.60;;;;;;4917401;29;20581;-89
2021/01/14 14:33:59;;;;;;;5.38;3.20;;;5.10;49.50;;;;;;4910625;29;20179;-90
2021/01/14 14:36:26;;;;;;;3.87;3.30;;;5.80;50.00;;;;;;4917898;29;20231;-90
2021/01/14 14:38:53;;;;;;;2.67;2.47;;;5.30;48.60;;;;;;4910246;29;20180;-89
2021/01/14 14:41:20;;;;;;;4.07;3.55;;;4.80;47.70;;;;;;4917015;29;20523;-89
2021/01/14 14:43:46;;;;;;;6.68;4.97;;;5.00;49.30;;;;;;4916704;29;20190;-88
2021/01/14 14:46:17;;;;;;;5.45;3.47;;;4.10;49.90;;;;;;4912389;29;20270;-89
2021/01/14 14:48:44;;;;;;;6.68;4.47;;;4.70;50.50;;;;;;4917636;29;20627;-89
2021/01/14 14:51:14;;;;;;;6.30;3.97;;;4.80;50.60;;;;;;4912557;29;20176;-89
2021/01/14 14:53:42;;;;;;;4.53;3.65;;;5.50;50.00;;;;;;4917591;29;20180;-87
2021/01/14 14:56:09;;;;;;;3.53;3.22;;;4.90;50.00;;;;;;4912983;29;20167;-90
2021/01/14 15:01:57;;;;;;;3.97;3.63;;;4.80;50.80;;;;;;4908725;29;20570;-91
2021/01/14 15:04:29;;;;;;;3.07;2.77;;;5.10;50.30;;;;;;4930753;29;20191;-91
2021/01/14 15:06:58;;;;;;;3.92;3.63;;;4.80;50.10;;;;;;4921964;29;20187;-92
2021/01/14 15:09:30;;;;;;;3.92;3.20;;;4.50;50.60;;;;;;4922210;29;20226;-92
2021/01/14 15:11:55;;;;;;;9.63;8.73;;;4.50;51.30;;;;;;4921968;29;20656;-92
2021/01/14 15:14:21;;;;;;;17.50;15.90;;;3.90;50.80;;;;;;4921978;29;20183;-89
2021/01/14 15:16:47;;;;;;;11.17;7.10;;;4.10;52.00;;;;;;4922343;29;20187;-90
2021/01/14 15:19:13;;;;;;;5.90;5.40;;;4.10;51.10;;;;;;4939837;29;20419;-93
2021/01/14 15:21:39;;;;;;;4.88;4.47;;;4.50;51.30;;;;;;4924860;29;20184;-93
2021/01/14 15:24:06;;;;;;;3.20;2.83;;;5.00;50.90;;;;;;4937451;29;20221;-89
2021/01/14 15:26:32;;;;;;;3.65;2.80;;;5.10;50.10;;;;;;4930088;29;20424;-92
2021/01/14 15:28:58;;;;;;;3.20;2.90;;;4.90;49.00;;;;;;4897741;29;20207;-92
2021/01/14 15:31:24;;;;;;;3.90;3.50;;;4.90;48.40;;;;;;4905733;29;20211;-93
2021/01/14 15:33:51;;;;;;;3.40;3.10;;;4.40;48.50;;;;;;4917245;29;20414;-94
2021/01/14 15:36:17;;;;;;;4.20;3.90;;;5.00;49.30;;;;;;4922271;29;20857;-88
2021/01/14 15:38:44;;;;;;;4.73;4.20;;;4.80;49.20;;;;;;4923022;29;20210;-92
2021/01/14 15:41:22;;;;;;;4.97;4.57;;;5.00;49.70;;;;;;4904560;29;20451;-92
2021/01/14 15:43:48;;;;;;;3.88;3.58;;;5.20;48.50;;;;;;4921082;29;20159;-92
2021/01/14 15:46:27;;;;;;;3.57;3.27;;;4.90;48.70;;;;;;4927816;29;20713;-91
2021/01/14 15:48:52;;;;;;;4.30;3.60;;;5.80;48.50;;;;;;4939469;29;20454;-92
2021/01/14 15:51:25;;;;;;;3.30;3.00;;;5.10;48.20;;;;;;4937057;29;20623;-91
2021/01/14 15:54:02;;;;;;;4.22;3.88;;;5.60;47.20;;;;;;4929090;29;20174;-91
2021/01/14 15:56:36;;;;;;;2.67;2.35;;;5.60;46.80;;;;;;4921302;29;20202;-91
2021/01/14 15:59:37;;;;;;;2.85;2.65;;;5.20;46.10;;;;;;4931785;29;20194;-92
2021/01/14 16:02:10;;;;;;;5.80;4.68;;;5.80;47.30;;;;;;4939816;29;20166;-92
2021/01/14 16:04:39;;;;;;;6.80;3.83;;;6.10;46.80;;;;;;4934920;29;20210;-93
2021/01/14 16:07:10;;;;;;;5.50;5.00;;;5.60;47.30;;;;;;4922180;29;20210;-94
2021/01/14 16:09:44;;;;;;;5.90;4.88;;;5.50;48.10;;;;;;4926363;29;20266;-91
2021/01/14 16:12:11;;;;;;;5.65;3.60;;;5.10;50.20;;;;;;4922097;29;20261;-94
2021/01/14 16:14:39;;;;;;;3.80;3.47;;;4.90;50.40;;;;;;4927192;29;20584;-94
2021/01/14 16:17:06;;;;;;;5.57;4.65;;;4.90;49.40;;;;;;4918952;29;20274;-93
2021/01/14 16:20:27;;;;;;;4.82;3.80;;;4.90;49.70;;;;;;4925374;29;20202;-94
2021/01/14 16:22:54;;;;;;;7.45;4.60;;;5.10;49.50;;;;;;4918131;29;20230;-92
2021/01/14 16:25:20;;;;;;;4.85;4.15;;;4.80;48.30;;;;;;4928444;29;20303;-92
2021/01/14 16:27:46;;;;;;;3.83;3.30;;;5.30;48.40;;;;;;4928909;29;20187;-93
2021/01/14 16:30:14;;;;;;;4.30;3.92;;;4.90;48.20;;;;;;4924492;29;20209;-93
2021/01/14 16:32:40;;;;;;;5.50;4.93;;;5.10;48.30;;;;;;4932938;29;20190;-94
2021/01/14 16:35:20;;;;;;;7.38;6.22;;;5.10;48.00;;;;;;4931921;29;20183;-94
2021/01/14 16:37:46;;;;;;;6.78;6.07;;;5.90;48.90;;;;;;4932774;29;20177;-92
2021/01/14 16:40:14;;;;;;;5.32;4.55;;;5.00;47.90;;;;;;4931906;29;20178;-94
2021/01/14 16:42:43;;;;;;;4.57;4.05;;;6.00;48.70;;;;;;4934569;29;20181;-93
2021/01/14 16:45:10;;;;;;;6.80;5.63;;;5.40;47.80;;;;;;4950955;29;20213;-93
2021/01/14 16:47:37;;;;;;;4.20;3.80;;;5.70;48.10;;;;;;4934526;29;20194;-93
2021/01/14 16:50:07;;;;;;;4.00;3.70;;;5.60;48.30;;;;;;4933510;29;20219;-91
2021/01/14 16:52:34;;;;;;;3.15;2.90;;;5.80;48.50;;;;;;4946623;29;20173;-93
2021/01/14 16:55:26;;;;;;;4.13;3.80;;;4.90;48.40;;;;;;4952844;29;20241;-92
2021/01/14 16:57:51;;;;;;;3.00;2.80;;;5.90;47.80;;;;;;4949856;29;20180;-92
2021/01/14 17:00:25;;;;;;;5.63;3.27;;;5.50;46.80;;;;;;4961865;29;20180;-92
2021/01/14 17:02:51;;;;;;;2.78;2.47;;;5.50;47.30;;;;;;4962760;29;20182;-93
2021/01/14 17:05:24;;;;;;;2.80;2.60;;;5.40;47.40;;;;;;4943569;29;20184;-93
2021/01/14 17:07:49;;;;;;;2.88;2.50;;;5.20;47.60;;;;;;4926440;29;20174;-92
2021/01/14 17:10:27;;;;;;;3.07;2.87;;;5.10;47.70;;;;;;4929666;29;20194;-92
2021/01/14 17:12:53;;;;;;;2.97;2.67;;;5.30;47.80;;;;;;4930718;29;20181;-94
2021/01/14 17:15:20;;;;;;;4.38;3.97;;;5.60;48.20;;;;;;4936726;29;20177;-94
2021/01/14 17:17:46;;;;;;;4.55;4.15;;;5.60;48.10;;;;;;4937725;29;20166;-95
2021/01/14 17:20:25;;;;;;;3.83;3.53;;;5.10;48.00;;;;;;4934726;29;20178;-93
2021/01/14 17:22:52;;;;;;;4.63;4.20;;;5.30;49.00;;;;;;4935526;29;20182;-94
2021/01/14 17:25:24;;;;;;;5.30;4.80;;;5.30;49.10;;;;;;4937763;29;20429;-93
2021/01/14 17:27:51;;;;;;;4.90;4.40;;;5.20;49.50;;;;;;4933761;29;20216;-94
2021/01/14 17:30:19;;;;;;;5.35;4.85;;;5.30;49.60;;;;;;4934959;29;20433;-94
2021/01/14 17:32:45;;;;;;;3.85;3.55;;;5.20;49.70;;;;;;4967516;29;20183;-94
2021/01/14 17:35:23;;;;;;;3.47;3.17;;;4.60;48.70;;;;;;4966916;29;20185;-94
2021/01/14 17:37:49;;;;;;;2.55;2.35;;;5.00;49.10;;;;;;4938187;29;20425;-93
2021/01/14 17:40:16;;;;;;;3.00;2.80;;;5.10;49.10;;;;;;4907070;29;20544;-93
2021/01/14 17:42:41;;;;;;;4.20;3.70;;;5.20;48.70;;;;;;4907429;29;20171;-93
2021/01/14 17:45:14;;;;;;;4.53;4.13;;;5.40;48.70;;;;;;4909216;29;20628;-92
2021/01/14 17:47:39;;;;;;;6.10;5.60;;;5.30;49.00;;;;;;4907558;29;20171;-93
2021/01/14 17:50:06;;;;;;;5.53;5.03;;;5.10;49.20;;;;;;4906912;29;20232;-93
2021/01/14 17:52:33;;;;;;;7.07;6.43;;;5.10;49.40;;;;;;4906689;29;20182;-92
2021/01/14 17:54:59;;;;;;;6.75;5.93;;;5.70;49.80;;;;;;4906941;29;20248;-93
2021/01/14 17:58:08;;;;;;;8.67;7.90;;;5.10;49.70;;;;;;4907257;29;20207;-93
2021/01/14 18:00:34;;;;;;;7.57;6.88;;;5.20;50.30;;;;;;4912632;29;20166;-93
2021/01/14 18:03:01;;;;;;;9.00;8.20;;;5.60;50.80;;;;;;4928416;29;20190;-94
2021/01/14 18:05:27;;;;;;;8.25;7.55;;;4.50;50.20;;;;;;4938942;29;20175;-93
2021/01/14 18:07:54;;;;;;;11.60;9.97;;;5.00;51.40;;;;;;4927084;29;20206;-93
2021/01/14 18:10:20;;;;;;;11.52;10.43;;;5.30;51.70;;;;;;4942881;29;20217;-94
2021/01/14 18:12:46;;;;;;;7.30;6.60;;;5.00;51.20;;;;;;4946224;29;20186;-93
2021/01/14 18:15:13;;;;;;;6.07;5.50;;;4.90;51.00;;;;;;4961127;29;20161;-94
2021/01/14 18:17:40;;;;;;;5.28;4.85;;;5.10;50.40;;;;;;4929279;29;20271;-93
2021/01/14 18:20:08;;;;;;;8.40;7.60;;;5.20;50.80;;;;;;4942582;29;20277;-94
2021/01/14 18:22:42;;;;;;;12.27;11.18;;;4.80;51.00;;;;;;4942538;29;20189;-94
2021/01/14 18:25:13;;;;;;;10.80;9.80;;;4.50;50.80;;;;;;4943447;29;20166;-93
2021/01/14 18:31:02;;;;;;;4.70;4.30;;;5.00;51.10;;;;;;4937160;29;20241;-95
2021/01/14 18:33:27;;;;;;;5.72;5.05;;;5.10;51.20;;;;;;4936228;29;20183;-95
2021/01/14 18:35:53;;;;;;;6.67;5.90;;;4.70;50.90;;;;;;4932279;29;20171;-95
2021/01/14 18:41:44;;;;;;;14.38;10.93;;;5.10;51.50;;;;;;4923519;29;20190;-95
2021/01/14 18:44:29;;;;;;;11.75;10.45;;;5.40;51.80;;;;;;4932977;29;20170;-95
2021/01/14 18:46:55;;;;;;;8.82;7.88;;;5.00;51.60;;;;;;4940250;29;20167;-94
2021/01/14 18:49:21;;;;;;;8.93;8.13;;;5.50;51.90;;;;;;4940415;29;20234;-93
2021/01/14 18:55:19;;;;;;;10.07;9.25;;;4.80;51.10;;;;;;4925070;29;20697;-93
2021/01/14 19:01:07;;;;;;;14.88;13.45;;;5.00;51.70;;;;;;4924545;29;20166;-93
2021/01/14 19:03:52;;;;;;;9.60;8.60;;;5.10;51.40;;;;;;4936728;29;20211;-94
2021/01/14 19:06:26;;;;;;;10.45;8.30;;;4.90;51.20;;;;;;4935584;29;20423;-96
2021/01/14 19:08:53;;;;;;;7.85;7.18;;;5.20;51.00;;;;;;4940498;29;20614;-96
2021/01/14 19:11:20;;;;;;;6.55;5.90;;;5.40;50.90;;;;;;4943359;29;20186;-96
2021/01/14 19:17:07;;;;;;;10.70;9.60;;;5.60;50.40;;;;;;4926431;29;20206;-96
2021/01/14 19:23:17;;;;;;;7.53;6.65;;;5.30;49.40;;;;;;4922838;29;20203;-95
2021/01/14 19:25:48;;;;;;;10.98;9.73;;;5.40;49.30;;;;;;4920670;29;20262;-95
2021/01/14 19:28:13;;;;;;;10.23;9.23;;;5.30;49.20;;;;;;4916895;29;20193;-95
2021/01/14 19:30:46;;;;;;;10.07;9.07;;;5.50;49.90;;;;;;4920440;29;20199;-95
2021/01/14 19:33:12;;;;;;;10.88;9.77;;;6.00;50.30;;;;;;4904539;29;20195;-93
2021/01/14 19:35:57;;;;;;;10.50;9.55;;;5.20;49.80;;;;;;4906657;29;20168;-95
2021/01/14 19:38:23;;;;;;;10.90;9.80;;;5.30;50.80;;;;;;4906280;29;20218;-95
2021/01/14 19:40:53;;;;;;;9.63;8.73;;;4.80;50.70;;;;;;4905453;29;20175;-94
2021/01/14 19:43:18;;;;;;;11.13;10.05;;;4.60;50.90;;;;;;4906878;29;20167;-94
2021/01/14 19:46:06;;;;;;;11.37;9.90;;;5.20;51.90;;;;;;4906236;29;20166;-95
2021/01/14 19:48:32;;;;;;;10.18;9.27;;;5.00;51.50;;;;;;4906722;29;20517;-93
2021/01/14 19:51:15;;;;;;;10.00;9.00;;;5.50;52.30;;;;;;4905784;29;20290;-92
2021/01/14 19:53:40;;;;;;;9.40;8.52;;;5.20;51.30;;;;;;4905061;29;20194;-95
2021/01/14 19:56:36;;;;;;;13.97;12.57;;;4.70;50.90;;;;;;4902350;29;20175;-96
2021/01/14 19:59:03;;;;;;;12.20;11.00;;;5.10;51.30;;;;;;4886616;29;20262;-95
2021/01/14 20:02:05;;;;;;;11.70;10.60;;;4.60;51.20;;;;;;4886024;29;20228;-94
2021/01/14 20:04:30;;;;;;;14.40;12.13;;;5.20;51.50;;;;;;4886714;29;20168;-95
2021/01/14 20:07:34;;;;;;;21.80;19.80;;;5.40;51.40;;;;;;4886220;29;20173;-94
2021/01/14 20:10:00;;;;;;;13.82;12.45;;;5.20;51.20;;;;;;4888858;29;20440;-95
2021/01/14 20:12:35;;;;;;;20.00;18.10;;;5.10;50.90;;;;;;4889614;29;20183;-95
2021/01/14 20:15:01;;;;;;;19.27;17.38;;;5.00;49.90;;;;;;4904007;29;20238;-93